sensor_id;sensor_type;location;lat;lon;timestamp;noise_LAeq;noise_LA_min;noise_LA_max;noise_LA01;noise_LA95
69611;Laerm;56817;52.302;4.844;2023-04-01T00:00:08;36.55;34.61;43.60;;
69611;Laerm;56817;52.302;4.844;2023-04-01T00:00:19;36.54;34.60;40.87;;
69611;Laerm;56817;52.302;4.844;2023-04-01T00:00:30;36.04;34.12;39.07;;
69611;Laerm;56817;52.302;4.844;2023-04-01T00:00:40;36.25;34.36;38.85;;
69611;Laerm;56817;52.302;4.844;2023-04-01T00:00:51;36.38;34.02;43.77;;
69611;Laerm;56817;52.302;4.844;2023-04-01T00:01:02;36.35;34.21;44.99;;
69611;Laerm;56817;52.302;4.844;2023-04-01T00:01:13;36.50;34.78;44.74;;
69611;Laerm;56817;52.302;4.844;2023-04-01T00:01:24;36.83;34.41;45.33;;
69611;Laerm;56817;52.302;4.844;2023-04-01T00:01:34;37.10;34.72;39.93;;
69611;Laerm;56817;52.302;4.844;2023-04-01T00:01:44;37.46;34.62;42.10;;
69611;Laerm;56817;52.302;4.844;2023-04-01T00:01:55;41.94;36.90;47.93;;
69611;Laerm;56817;52.302;4.844;2023-04-01T00:02:05;37.49;35.52;40.56;;
69611;Laerm;56817;52.302;4.844;2023-04-01T00:02:15;37.43;35.55;40.41;;
69611;Laerm;56817;52.302;4.844;2023-04-01T00:02:26;40.10;36.27;43.18;;
69611;Laerm;56817;52.302;4.844;2023-04-01T00:02:36;40.68;36.52;46.95;;
69611;Laerm;56817;52.302;4.844;2023-04-01T00:02:46;40.75;36.74;46.05;;
69611;Laerm;56817;52.302;4.844;2023-04-01T00:02:57;42.78;37.25;49.22;;
69611;Laerm;56817;52.302;4.844;2023-04-01T00:03:07;42.08;36.26;56.56;;
69611;Laerm;56817;52.302;4.844;2023-04-01T00:03:18;47.12;36.70;69.63;;
69611;Laerm;56817;52.302;4.844;2023-04-01T00:03:28;41.38;38.66;45.75;;
69611;Laerm;56817;52.302;4.844;2023-04-01T00:03:39;48.83;39.55;72.53;;
69611;Laerm;56817;52.302;4.844;2023-04-01T00:03:49;42.44;38.79;59.68;;
69611;Laerm;56817;52.302;4.844;2023-04-01T00:04:00;41.18;38.41;51.64;;
69611;Laerm;56817;52.302;4.844;2023-04-01T00:04:12;39.79;37.46;48.64;;
69611;Laerm;56817;52.302;4.844;2023-04-01T00:04:22;46.12;37.55;69.53;;
69611;Laerm;56817;52.302;4.844;2023-04-01T00:04:32;39.40;36.74;55.33;;
69611;Laerm;56817;52.302;4.844;2023-04-01T00:04:42;40.46;37.80;50.10;;
69611;Laerm;56817;52.302;4.844;2023-04-01T00:04:53;42.44;39.41;51.71;;
69611;Laerm;56817;52.302;4.844;2023-04-01T00:05:03;47.26;41.61;64.93;;
69611;Laerm;56817;52.302;4.844;2023-04-01T00:05:14;45.73;42.59;55.91;;
69611;Laerm;56817;52.302;4.844;2023-04-01T00:05:24;44.78;41.83;55.37;;
69611;Laerm;56817;52.302;4.844;2023-04-01T00:05:35;46.81;42.59;56.01;;
69611;Laerm;56817;52.302;4.844;2023-04-01T00:05:45;45.21;42.56;53.95;;
69611;Laerm;56817;52.302;4.844;2023-04-01T00:05:57;46.37;43.01;59.78;;
69611;Laerm;56817;52.302;4.844;2023-04-01T00:06:09;47.82;43.34;63.36;;
69611;Laerm;56817;52.302;4.844;2023-04-01T00:06:19;44.67;40.67;57.03;;
69611;Laerm;56817;52.302;4.844;2023-04-01T00:06:29;44.22;41.05;56.56;;
69611;Laerm;56817;52.302;4.844;2023-04-01T00:06:40;45.48;42.76;52.26;;
69611;Laerm;56817;52.302;4.844;2023-04-01T00:06:50;44.03;41.16;53.05;;
69611;Laerm;56817;52.302;4.844;2023-04-01T00:07:01;44.98;40.60;64.35;;
69611;Laerm;56817;52.302;4.844;2023-04-01T00:07:12;43.54;40.37;55.24;;
69611;Laerm;56817;52.302;4.844;2023-04-01T00:07:22;48.41;42.13;68.81;;
69611;Laerm;56817;52.302;4.844;2023-04-01T00:07:32;45.50;41.36;57.20;;
69611;Laerm;56817;52.302;4.844;2023-04-01T00:07:43;45.19;41.81;56.30;;
69611;Laerm;56817;52.302;4.844;2023-04-01T00:07:53;46.40;42.26;63.68;;
69611;Laerm;56817;52.302;4.844;2023-04-01T00:08:03;44.84;41.31;58.58;;
69611;Laerm;56817;52.302;4.844;2023-04-01T00:08:14;53.94;40.55;76.88;;
69611;Laerm;56817;52.302;4.844;2023-04-01T00:08:25;44.73;41.81;53.53;;
69611;Laerm;56817;52.302;4.844;2023-04-01T00:08:36;47.85;40.68;66.62;;
69611;Laerm;56817;52.302;4.844;2023-04-01T00:08:46;43.43;39.45;59.62;;
69611;Laerm;56817;52.302;4.844;2023-04-01T00:08:56;43.37;40.33;50.13;;
69611;Laerm;56817;52.302;4.844;2023-04-01T00:09:07;47.90;38.29;68.94;;
69611;Laerm;56817;52.302;4.844;2023-04-01T00:09:17;41.33;37.88;56.24;;
69611;Laerm;56817;52.302;4.844;2023-04-01T00:09:27;41.38;37.85;53.94;;
69611;Laerm;56817;52.302;4.844;2023-04-01T00:09:38;42.73;38.28;52.03;;
69611;Laerm;56817;52.302;4.844;2023-04-01T00:09:48;44.67;38.74;54.97;;
69611;Laerm;56817;52.302;4.844;2023-04-01T00:09:58;43.25;38.06;57.60;;
69611;Laerm;56817;52.302;4.844;2023-04-01T00:10:10;41.34;38.14;50.53;;
69611;Laerm;56817;52.302;4.844;2023-04-01T00:10:20;40.95;37.62;52.43;;
69611;Laerm;56817;52.302;4.844;2023-04-01T00:10:30;48.24;37.41;72.11;;
69611;Laerm;56817;52.302;4.844;2023-04-01T00:10:40;40.69;38.16;52.31;;
69611;Laerm;56817;52.302;4.844;2023-04-01T00:10:51;40.66;37.94;52.00;;
69611;Laerm;56817;52.302;4.844;2023-04-01T00:11:01;53.50;39.87;77.88;;
69611;Laerm;56817;52.302;4.844;2023-04-01T00:11:12;40.01;36.97;51.36;;
69611;Laerm;56817;52.302;4.844;2023-04-01T00:11:22;41.43;36.76;61.95;;
69611;Laerm;56817;52.302;4.844;2023-04-01T00:11:33;40.74;35.91;60.50;;
69611;Laerm;56817;52.302;4.844;2023-04-01T00:11:43;38.76;35.93;46.83;;
69611;Laerm;56817;52.302;4.844;2023-04-01T00:11:55;41.41;36.32;59.16;;
69611;Laerm;56817;52.302;4.844;2023-04-01T00:12:05;42.78;38.62;52.34;;
69611;Laerm;56817;52.302;4.844;2023-04-01T00:12:15;39.87;36.90;53.82;;
69611;Laerm;56817;52.302;4.844;2023-04-01T00:12:26;39.80;36.46;56.78;;
69611;Laerm;56817;52.302;4.844;2023-04-01T00:12:37;38.74;36.42;46.34;;
69611;Laerm;56817;52.302;4.844;2023-04-01T00:12:47;38.89;36.46;50.15;;
69611;Laerm;56817;52.302;4.844;2023-04-01T00:12:58;39.39;36.26;54.06;;
69611;Laerm;56817;52.302;4.844;2023-04-01T00:13:08;38.24;35.67;49.88;;
69611;Laerm;56817;52.302;4.844;2023-04-01T00:13:18;38.34;35.91;46.52;;
69611;Laerm;56817;52.302;4.844;2023-04-01T00:13:29;38.05;35.61;45.52;;
69611;Laerm;56817;52.302;4.844;2023-04-01T00:13:40;38.52;35.92;49.22;;
69611;Laerm;56817;52.302;4.844;2023-04-01T00:13:50;38.80;36.40;48.80;;
69611;Laerm;56817;52.302;4.844;2023-04-01T00:14:00;38.84;36.03;46.44;;
69611;Laerm;56817;52.302;4.844;2023-04-01T00:14:11;38.43;35.25;49.48;;
69611;Laerm;56817;52.302;4.844;2023-04-01T00:14:21;38.63;35.47;53.10;;
69611;Laerm;56817;52.302;4.844;2023-04-01T00:14:31;38.13;35.13;52.53;;
69611;Laerm;56817;52.302;4.844;2023-04-01T00:14:41;37.49;35.06;43.96;;
69611;Laerm;56817;52.302;4.844;2023-04-01T00:14:52;38.04;35.08;51.90;;
69611;Laerm;56817;52.302;4.844;2023-04-01T00:15:03;37.55;35.44;43.65;;
69611;Laerm;56817;52.302;4.844;2023-04-01T00:15:13;38.44;35.75;52.09;;
69611;Laerm;56817;52.302;4.844;2023-04-01T00:15:23;40.31;37.11;49.06;;
69611;Laerm;56817;52.302;4.844;2023-04-01T00:15:34;38.71;35.55;50.87;;
69611;Laerm;56817;52.302;4.844;2023-04-01T00:15:44;41.04;36.44;46.16;;
69611;Laerm;56817;52.302;4.844;2023-04-01T00:15:55;40.53;34.95;53.25;;
69611;Laerm;56817;52.302;4.844;2023-04-01T00:16:06;37.78;34.21;53.73;;
69611;Laerm;56817;52.302;4.844;2023-04-01T00:16:16;38.04;34.96;52.38;;
69611;Laerm;56817;52.302;4.844;2023-04-01T00:16:26;36.94;34.38;44.42;;
69611;Laerm;56817;52.302;4.844;2023-04-01T00:16:37;37.82;34.53;50.68;;
69611;Laerm;56817;52.302;4.844;2023-04-01T00:16:47;40.11;35.16;57.81;;
69611;Laerm;56817;52.302;4.844;2023-04-01T00:16:57;41.45;37.21;46.57;;
69611;Laerm;56817;52.302;4.844;2023-04-01T00:17:07;42.20;36.14;53.14;;
69611;Laerm;56817;52.302;4.844;2023-04-01T00:17:18;40.32;36.38;55.24;;
69611;Laerm;56817;52.302;4.844;2023-04-01T00:17:28;37.89;35.69;45.79;;
69611;Laerm;56817;52.302;4.844;2023-04-01T00:17:38;37.70;34.73;47.73;;
69611;Laerm;56817;52.302;4.844;2023-04-01T00:17:48;37.60;35.08;46.79;;
69611;Laerm;56817;52.302;4.844;2023-04-01T00:17:59;37.29;34.52;45.96;;
69611;Laerm;56817;52.302;4.844;2023-04-01T00:18:10;37.99;35.11;53.34;;
69611;Laerm;56817;52.302;4.844;2023-04-01T00:18:21;37.79;34.81;47.86;;
69611;Laerm;56817;52.302;4.844;2023-04-01T00:18:32;38.41;35.53;50.94;;
69611;Laerm;56817;52.302;4.844;2023-04-01T00:18:42;41.42;36.31;57.27;;
69611;Laerm;56817;52.302;4.844;2023-04-01T00:18:52;44.11;39.86;48.74;;
69611;Laerm;56817;52.302;4.844;2023-04-01T00:19:02;40.13;36.07;48.59;;
69611;Laerm;56817;52.302;4.844;2023-04-01T00:19:13;37.70;35.51;44.01;;
69611;Laerm;56817;52.302;4.844;2023-04-01T00:19:23;39.73;35.65;52.91;;
69611;Laerm;56817;52.302;4.844;2023-04-01T00:19:36;38.11;35.09;47.93;;
69611;Laerm;56817;52.302;4.844;2023-04-01T00:19:47;38.32;34.46;51.46;;
69611;Laerm;56817;52.302;4.844;2023-04-01T00:19:57;38.64;35.38;55.40;;
69611;Laerm;56817;52.302;4.844;2023-04-01T00:20:07;41.58;35.75;63.43;;
69611;Laerm;56817;52.302;4.844;2023-04-01T00:20:18;37.90;35.52;46.48;;
69611;Laerm;56817;52.302;4.844;2023-04-01T00:20:28;37.27;35.19;45.31;;
69611;Laerm;56817;52.302;4.844;2023-04-01T00:20:38;37.94;35.05;51.45;;
69611;Laerm;56817;52.302;4.844;2023-04-01T00:20:49;37.42;34.78;46.23;;
69611;Laerm;56817;52.302;4.844;2023-04-01T00:21:00;38.04;35.13;49.94;;
69611;Laerm;56817;52.302;4.844;2023-04-01T00:21:10;37.64;35.24;49.17;;
69611;Laerm;56817;52.302;4.844;2023-04-01T00:21:21;40.00;35.36;59.61;;
69611;Laerm;56817;52.302;4.844;2023-04-01T00:21:32;38.12;35.40;51.99;;
69611;Laerm;56817;52.302;4.844;2023-04-01T00:21:43;37.76;35.43;47.18;;
69611;Laerm;56817;52.302;4.844;2023-04-01T00:21:53;40.34;36.08;48.67;;
69611;Laerm;56817;52.302;4.844;2023-04-01T00:22:03;39.22;35.69;46.10;;
69611;Laerm;56817;52.302;4.844;2023-04-01T00:22:13;37.18;35.04;44.11;;
69611;Laerm;56817;52.302;4.844;2023-04-01T00:22:24;37.37;34.41;50.83;;
69611;Laerm;56817;52.302;4.844;2023-04-01T00:22:34;37.55;34.75;45.75;;
69611;Laerm;56817;52.302;4.844;2023-04-01T00:22:45;37.62;34.89;48.50;;
69611;Laerm;56817;52.302;4.844;2023-04-01T00:22:55;41.55;34.73;61.20;;
69611;Laerm;56817;52.302;4.844;2023-04-01T00:23:06;38.30;35.27;51.64;;
69611;Laerm;56817;52.302;4.844;2023-04-01T00:23:16;37.10;34.50;45.49;;
69611;Laerm;56817;52.302;4.844;2023-04-01T00:23:27;37.10;34.87;44.08;;
69611;Laerm;56817;52.302;4.844;2023-04-01T00:23:37;38.74;34.92;56.98;;
69611;Laerm;56817;52.302;4.844;2023-04-01T00:23:48;37.87;34.85;47.41;;
69611;Laerm;56817;52.302;4.844;2023-04-01T00:23:59;37.67;34.98;52.56;;
69611;Laerm;56817;52.302;4.844;2023-04-01T00:24:09;37.21;34.65;46.30;;
69611;Laerm;56817;52.302;4.844;2023-04-01T00:24:19;37.45;34.69;47.87;;
69611;Laerm;56817;52.302;4.844;2023-04-01T00:24:29;36.91;34.73;43.76;;
69611;Laerm;56817;52.302;4.844;2023-04-01T00:24:40;37.92;34.87;50.19;;
69611;Laerm;56817;52.302;4.844;2023-04-01T00:24:50;38.20;35.20;54.23;;
69611;Laerm;56817;52.302;4.844;2023-04-01T00:25:00;37.58;35.17;43.48;;
69611;Laerm;56817;52.302;4.844;2023-04-01T00:25:10;39.27;35.24;57.40;;
69611;Laerm;56817;52.302;4.844;2023-04-01T00:25:21;37.49;34.89;49.05;;
69611;Laerm;56817;52.302;4.844;2023-04-01T00:25:31;36.95;34.52;45.92;;
69611;Laerm;56817;52.302;4.844;2023-04-01T00:25:42;37.49;35.03;46.54;;
69611;Laerm;56817;52.302;4.844;2023-04-01T00:25:53;38.66;35.73;54.41;;
69611;Laerm;56817;52.302;4.844;2023-04-01T00:26:03;41.93;36.63;63.22;;
69611;Laerm;56817;52.302;4.844;2023-04-01T00:26:14;38.87;35.77;49.48;;
69611;Laerm;56817;52.302;4.844;2023-04-01T00:26:24;38.26;35.60;50.45;;
69611;Laerm;56817;52.302;4.844;2023-04-01T00:26:35;39.28;36.46;48.92;;
69611;Laerm;56817;52.302;4.844;2023-04-01T00:26:45;39.76;37.28;46.50;;
69611;Laerm;56817;52.302;4.844;2023-04-01T00:26:57;42.89;38.15;49.42;;
69611;Laerm;56817;52.302;4.844;2023-04-01T00:27:07;48.19;39.30;55.78;;
69611;Laerm;56817;52.302;4.844;2023-04-01T00:27:18;41.14;38.63;52.78;;
69611;Laerm;56817;52.302;4.844;2023-04-01T00:27:28;40.57;37.63;48.49;;
69611;Laerm;56817;52.302;4.844;2023-04-01T00:27:39;40.04;37.56;45.45;;
69611;Laerm;56817;52.302;4.844;2023-04-01T00:27:49;43.35;36.96;65.08;;
69611;Laerm;56817;52.302;4.844;2023-04-01T00:28:00;42.36;36.71;64.12;;
69611;Laerm;56817;52.302;4.844;2023-04-01T00:28:10;41.90;37.72;52.76;;
69611;Laerm;56817;52.302;4.844;2023-04-01T00:28:20;40.30;37.83;51.71;;
69611;Laerm;56817;52.302;4.844;2023-04-01T00:28:31;38.98;35.59;44.64;;
69611;Laerm;56817;52.302;4.844;2023-04-01T00:28:43;37.79;35.17;49.84;;
69611;Laerm;56817;52.302;4.844;2023-04-01T00:28:53;37.33;34.66;47.79;;
69611;Laerm;56817;52.302;4.844;2023-04-01T00:29:04;37.81;34.93;49.95;;
69611;Laerm;56817;52.302;4.844;2023-04-01T00:29:14;38.23;35.25;52.94;;
69611;Laerm;56817;52.302;4.844;2023-04-01T00:29:24;37.44;34.90;46.15;;
69611;Laerm;56817;52.302;4.844;2023-04-01T00:29:41;40.37;35.68;59.38;;
69611;Laerm;56817;52.302;4.844;2023-04-01T00:29:52;40.20;35.48;59.56;;
69611;Laerm;56817;52.302;4.844;2023-04-01T00:30:02;38.50;35.47;48.36;;
69611;Laerm;56817;52.302;4.844;2023-04-01T00:30:13;38.40;36.28;45.58;;
69611;Laerm;56817;52.302;4.844;2023-04-01T00:30:24;38.02;35.76;44.14;;
69611;Laerm;56817;52.302;4.844;2023-04-01T00:30:35;38.66;35.78;52.12;;
69611;Laerm;56817;52.302;4.844;2023-04-01T00:30:46;38.04;35.37;47.30;;
69611;Laerm;56817;52.302;4.844;2023-04-01T00:30:57;38.20;35.66;49.48;;
69611;Laerm;56817;52.302;4.844;2023-04-01T00:31:08;39.08;36.04;45.04;;
69611;Laerm;56817;52.302;4.844;2023-04-01T00:31:18;40.70;37.91;48.81;;
69611;Laerm;56817;52.302;4.844;2023-04-01T00:31:28;42.18;38.29;55.49;;
69611;Laerm;56817;52.302;4.844;2023-04-01T00:31:39;47.39;37.15;71.65;;
69611;Laerm;56817;52.302;4.844;2023-04-01T00:31:50;40.33;37.55;56.59;;
69611;Laerm;56817;52.302;4.844;2023-04-01T00:32:00;43.58;37.74;64.85;;
69611;Laerm;56817;52.302;4.844;2023-04-01T00:32:11;40.16;37.21;57.43;;
69611;Laerm;56817;52.302;4.844;2023-04-01T00:32:21;39.59;37.45;44.41;;
69611;Laerm;56817;52.302;4.844;2023-04-01T00:32:31;40.62;37.66;54.65;;
69611;Laerm;56817;52.302;4.844;2023-04-01T00:32:42;47.41;38.68;70.79;;
69611;Laerm;56817;52.302;4.844;2023-04-01T00:32:53;44.94;38.38;66.87;;
69611;Laerm;56817;52.302;4.844;2023-04-01T00:33:03;39.88;36.98;47.48;;
69611;Laerm;56817;52.302;4.844;2023-04-01T00:33:13;39.50;37.52;45.05;;
69611;Laerm;56817;52.302;4.844;2023-04-01T00:33:24;41.14;36.99;57.57;;
69611;Laerm;56817;52.302;4.844;2023-04-01T00:33:34;41.15;37.00;61.39;;
69611;Laerm;56817;52.302;4.844;2023-04-01T00:33:45;39.46;36.96;51.78;;
69611;Laerm;56817;52.302;4.844;2023-04-01T00:33:55;39.73;37.29;50.37;;
69611;Laerm;56817;52.302;4.844;2023-04-01T00:34:06;41.70;37.23;52.50;;
69611;Laerm;56817;52.302;4.844;2023-04-01T00:34:16;43.32;37.72;51.22;;
69611;Laerm;56817;52.302;4.844;2023-04-01T00:34:26;39.50;36.80;47.17;;
69611;Laerm;56817;52.302;4.844;2023-04-01T00:34:37;38.59;36.26;44.71;;
69611;Laerm;56817;52.302;4.844;2023-04-01T00:34:50;40.02;36.37;55.02;;
69611;Laerm;56817;52.302;4.844;2023-04-01T00:35:01;40.45;35.89;59.94;;
69611;Laerm;56817;52.302;4.844;2023-04-01T00:35:11;39.42;36.91;49.11;;
69611;Laerm;56817;52.302;4.844;2023-04-01T00:35:22;39.98;36.84;51.51;;
69611;Laerm;56817;52.302;4.844;2023-04-01T00:35:32;39.06;36.36;47.89;;
69611;Laerm;56817;52.302;4.844;2023-04-01T00:35:43;40.29;36.06;55.65;;
69611;Laerm;56817;52.302;4.844;2023-04-01T00:35:53;38.84;35.41;52.44;;
69611;Laerm;56817;52.302;4.844;2023-04-01T00:36:17;38.83;36.55;45.83;;
69611;Laerm;56817;52.302;4.844;2023-04-01T00:36:28;38.43;35.79;46.23;;
69611;Laerm;56817;52.302;4.844;2023-04-01T00:36:38;38.67;36.38;45.82;;
69611;Laerm;56817;52.302;4.844;2023-04-01T00:36:48;39.23;35.47;53.99;;
69611;Laerm;56817;52.302;4.844;2023-04-01T00:36:59;44.25;37.93;59.69;;
69611;Laerm;56817;52.302;4.844;2023-04-01T00:37:10;40.09;36.88;46.89;;
69611;Laerm;56817;52.302;4.844;2023-04-01T00:37:21;38.60;35.98;47.42;;
69611;Laerm;56817;52.302;4.844;2023-04-01T00:37:34;40.81;36.19;57.16;;
69611;Laerm;56817;52.302;4.844;2023-04-01T00:37:44;40.59;36.13;60.24;;
69611;Laerm;56817;52.302;4.844;2023-04-01T00:37:55;38.91;35.47;46.86;;
69611;Laerm;56817;52.302;4.844;2023-04-01T00:38:05;38.83;35.50;48.64;;
69611;Laerm;56817;52.302;4.844;2023-04-01T00:38:16;38.04;35.46;46.14;;
69611;Laerm;56817;52.302;4.844;2023-04-01T00:38:26;37.56;34.17;43.76;;
69611;Laerm;56817;52.302;4.844;2023-04-01T00:38:37;37.91;35.02;47.56;;
69611;Laerm;56817;52.302;4.844;2023-04-01T00:38:47;37.99;35.65;48.25;;
69611;Laerm;56817;52.302;4.844;2023-04-01T00:38:58;40.80;35.55;61.09;;
69611;Laerm;56817;52.302;4.844;2023-04-01T00:39:09;39.01;35.18;56.89;;
69611;Laerm;56817;52.302;4.844;2023-04-01T00:39:20;39.01;36.10;54.56;;
69611;Laerm;56817;52.302;4.844;2023-04-01T00:39:31;39.42;35.87;46.08;;
69611;Laerm;56817;52.302;4.844;2023-04-01T00:39:41;40.41;36.62;46.47;;
69611;Laerm;56817;52.302;4.844;2023-04-01T00:39:51;38.73;36.28;49.56;;
69611;Laerm;56817;52.302;4.844;2023-04-01T00:40:02;38.88;35.69;50.04;;
69611;Laerm;56817;52.302;4.844;2023-04-01T00:40:24;42.86;35.66;49.74;;
69611;Laerm;56817;52.302;4.844;2023-04-01T00:40:36;39.66;34.87;48.94;;
69611;Laerm;56817;52.302;4.844;2023-04-01T00:40:47;38.23;35.61;46.71;;
69611;Laerm;56817;52.302;4.844;2023-04-01T00:40:57;38.25;35.81;49.58;;
69611;Laerm;56817;52.302;4.844;2023-04-01T00:41:09;37.87;34.93;52.65;;
69611;Laerm;56817;52.302;4.844;2023-04-01T00:41:24;38.56;34.46;57.68;;
69611;Laerm;56817;52.302;4.844;2023-04-01T00:41:36;37.38;35.00;44.19;;
69611;Laerm;56817;52.302;4.844;2023-04-01T00:41:46;37.24;34.70;48.25;;
69611;Laerm;56817;52.302;4.844;2023-04-01T00:41:57;38.31;34.67;54.24;;
69611;Laerm;56817;52.302;4.844;2023-04-01T00:42:08;36.95;34.55;42.89;;
69611;Laerm;56817;52.302;4.844;2023-04-01T00:42:18;37.68;34.78;45.57;;
69611;Laerm;56817;52.302;4.844;2023-04-01T00:42:29;37.74;35.25;43.85;;
69611;Laerm;56817;52.302;4.844;2023-04-01T00:42:39;38.74;35.82;47.40;;
69611;Laerm;56817;52.302;4.844;2023-04-01T00:42:49;37.98;35.05;48.75;;
69611;Laerm;56817;52.302;4.844;2023-04-01T00:43:00;37.69;35.00;46.97;;
69611;Laerm;56817;52.302;4.844;2023-04-01T00:43:12;38.42;35.55;48.70;;
69611;Laerm;56817;52.302;4.844;2023-04-01T00:43:22;39.40;36.10;48.13;;
69611;Laerm;56817;52.302;4.844;2023-04-01T00:43:33;38.19;35.87;45.81;;
69611;Laerm;56817;52.302;4.844;2023-04-01T00:43:45;38.41;35.35;51.37;;
69611;Laerm;56817;52.302;4.844;2023-04-01T00:44:14;37.63;35.31;44.20;;
69611;Laerm;56817;52.302;4.844;2023-04-01T00:44:27;38.18;34.61;46.92;;
69611;Laerm;56817;52.302;4.844;2023-04-01T00:44:38;37.87;34.72;52.77;;
69611;Laerm;56817;52.302;4.844;2023-04-01T00:44:50;37.54;34.36;49.69;;
69611;Laerm;56817;52.302;4.844;2023-04-01T00:45:21;37.34;34.57;46.42;;
69611;Laerm;56817;52.302;4.844;2023-04-01T00:45:33;38.95;34.72;50.63;;
69611;Laerm;56817;52.302;4.844;2023-04-01T00:45:44;39.73;35.20;49.27;;
69611;Laerm;56817;52.302;4.844;2023-04-01T00:45:55;37.20;34.55;46.79;;
69611;Laerm;56817;52.302;4.844;2023-04-01T00:46:05;37.32;35.18;44.30;;
69611;Laerm;56817;52.302;4.844;2023-04-01T00:46:16;37.56;35.08;46.83;;
69611;Laerm;56817;52.302;4.844;2023-04-01T00:46:26;37.99;35.27;47.36;;
69611;Laerm;56817;52.302;4.844;2023-04-01T00:46:36;38.25;35.38;47.58;;
69611;Laerm;56817;52.302;4.844;2023-04-01T00:46:47;37.75;34.41;46.68;;
69611;Laerm;56817;52.302;4.844;2023-04-01T00:46:57;37.34;34.69;44.62;;
69611;Laerm;56817;52.302;4.844;2023-04-01T00:47:08;37.57;34.35;49.77;;
69611;Laerm;56817;52.302;4.844;2023-04-01T00:47:18;37.33;34.74;47.64;;
69611;Laerm;56817;52.302;4.844;2023-04-01T00:47:29;37.22;34.83;45.12;;
69611;Laerm;56817;52.302;4.844;2023-04-01T00:47:39;37.36;35.00;44.16;;
69611;Laerm;56817;52.302;4.844;2023-04-01T00:47:49;37.88;36.12;43.00;;
69611;Laerm;56817;52.302;4.844;2023-04-01T00:48:02;37.21;35.18;42.98;;
69611;Laerm;56817;52.302;4.844;2023-04-01T00:48:15;37.11;34.04;45.03;;
69611;Laerm;56817;52.302;4.844;2023-04-01T00:48:28;38.25;35.09;48.25;;
69611;Laerm;56817;52.302;4.844;2023-04-01T00:48:50;39.10;34.51;58.57;;
69611;Laerm;56817;52.302;4.844;2023-04-01T00:49:02;37.00;34.32;45.05;;
69611;Laerm;56817;52.302;4.844;2023-04-01T00:49:13;38.04;34.94;48.42;;
69611;Laerm;56817;52.302;4.844;2023-04-01T00:49:25;42.96;36.21;47.86;;
69611;Laerm;56817;52.302;4.844;2023-04-01T00:49:37;41.19;37.46;46.77;;
69611;Laerm;56817;52.302;4.844;2023-04-01T00:49:50;38.65;34.41;44.69;;
69611;Laerm;56817;52.302;4.844;2023-04-01T00:50:01;37.01;34.22;46.13;;
69611;Laerm;56817;52.302;4.844;2023-04-01T00:50:11;36.93;34.39;44.39;;
69611;Laerm;56817;52.302;4.844;2023-04-01T00:50:22;36.85;34.63;45.14;;
69611;Laerm;56817;52.302;4.844;2023-04-01T00:50:33;40.88;34.12;49.66;;
69611;Laerm;56817;52.302;4.844;2023-04-01T00:50:46;41.57;35.76;48.59;;
69611;Laerm;56817;52.302;4.844;2023-04-01T00:51:02;37.04;34.58;44.46;;
69611;Laerm;56817;52.302;4.844;2023-04-01T00:51:15;37.09;34.61;44.15;;
69611;Laerm;56817;52.302;4.844;2023-04-01T00:51:27;37.56;34.94;45.26;;
69611;Laerm;56817;52.302;4.844;2023-04-01T00:51:39;43.40;34.77;50.69;;
69611;Laerm;56817;52.302;4.844;2023-04-01T00:51:51;43.95;36.48;50.94;;
69611;Laerm;56817;52.302;4.844;2023-04-01T00:52:03;41.58;36.65;47.22;;
69611;Laerm;56817;52.302;4.844;2023-04-01T00:52:15;39.38;35.21;47.12;;
69611;Laerm;56817;52.302;4.844;2023-04-01T00:52:27;37.72;35.09;46.18;;
69611;Laerm;56817;52.302;4.844;2023-04-01T00:52:37;37.18;34.68;46.51;;
69611;Laerm;56817;52.302;4.844;2023-04-01T00:52:48;36.82;34.87;42.75;;
69611;Laerm;56817;52.302;4.844;2023-04-01T00:52:58;37.33;35.28;41.90;;
69611;Laerm;56817;52.302;4.844;2023-04-01T00:53:10;37.56;34.83;45.61;;
69611;Laerm;56817;52.302;4.844;2023-04-01T00:53:20;37.20;35.13;42.57;;
69611;Laerm;56817;52.302;4.844;2023-04-01T00:53:31;37.34;34.80;46.32;;
69611;Laerm;56817;52.302;4.844;2023-04-01T00:53:47;37.84;35.48;44.72;;
69611;Laerm;56817;52.302;4.844;2023-04-01T00:53:58;36.76;34.69;42.13;;
69611;Laerm;56817;52.302;4.844;2023-04-01T00:54:11;36.84;34.67;42.55;;
69611;Laerm;56817;52.302;4.844;2023-04-01T00:54:22;36.85;34.82;44.25;;
69611;Laerm;56817;52.302;4.844;2023-04-01T00:54:34;36.80;34.19;44.64;;
69611;Laerm;56817;52.302;4.844;2023-04-01T00:54:45;38.62;34.78;57.83;;
69611;Laerm;56817;52.302;4.844;2023-04-01T00:54:57;37.43;34.94;45.13;;
69611;Laerm;56817;52.302;4.844;2023-04-01T00:55:09;36.92;34.45;44.63;;
69611;Laerm;56817;52.302;4.844;2023-04-01T00:55:21;38.11;34.02;48.10;;
69611;Laerm;56817;52.302;4.844;2023-04-01T00:55:32;37.39;35.33;40.71;;
69611;Laerm;56817;52.302;4.844;2023-04-01T00:55:47;39.43;36.09;42.78;;
69611;Laerm;56817;52.302;4.844;2023-04-01T00:56:13;37.43;35.55;44.13;;
69611;Laerm;56817;52.302;4.844;2023-04-01T00:56:30;37.64;34.46;42.72;;
69611;Laerm;56817;52.302;4.844;2023-04-01T00:56:45;37.69;34.68;50.99;;
69611;Laerm;56817;52.302;4.844;2023-04-01T00:57:32;37.74;35.02;47.84;;
69611;Laerm;56817;52.302;4.844;2023-04-01T00:57:40;37.12;34.84;43.77;;
69611;Laerm;56817;52.302;4.844;2023-04-01T00:57:44;37.84;35.37;43.38;;
69611;Laerm;56817;52.302;4.844;2023-04-01T00:57:56;38.30;35.13;46.92;;
69611;Laerm;56817;52.302;4.844;2023-04-01T00:58:09;36.78;34.69;42.57;;
69611;Laerm;56817;52.302;4.844;2023-04-01T00:58:21;36.87;34.50;44.25;;
69611;Laerm;56817;52.302;4.844;2023-04-01T00:58:34;36.68;33.92;43.07;;
69611;Laerm;56817;52.302;4.844;2023-04-01T00:58:57;37.13;34.59;46.47;;
69611;Laerm;56817;52.302;4.844;2023-04-01T00:59:52;40.26;34.70;49.89;;
69611;Laerm;56817;52.302;4.844;2023-04-01T01:00:05;36.27;34.19;43.86;;
69611;Laerm;56817;52.302;4.844;2023-04-01T01:00:17;36.51;34.18;44.98;;
69611;Laerm;56817;52.302;4.844;2023-04-01T01:00:27;36.64;34.34;43.96;;
69611;Laerm;56817;52.302;4.844;2023-04-01T01:00:38;37.38;34.40;52.92;;
69611;Laerm;56817;52.302;4.844;2023-04-01T01:00:48;36.73;33.95;46.91;;
69611;Laerm;56817;52.302;4.844;2023-04-01T01:00:59;37.10;34.65;44.40;;
69611;Laerm;56817;52.302;4.844;2023-04-01T01:01:10;37.29;34.45;45.46;;
69611;Laerm;56817;52.302;4.844;2023-04-01T01:01:21;37.09;35.01;42.49;;
69611;Laerm;56817;52.302;4.844;2023-04-01T01:01:34;37.17;34.61;43.24;;
69611;Laerm;56817;52.302;4.844;2023-04-01T01:01:45;36.32;34.04;46.19;;
69611;Laerm;56817;52.302;4.844;2023-04-01T01:01:55;36.55;34.27;44.70;;
69611;Laerm;56817;52.302;4.844;2023-04-01T01:02:07;36.26;34.01;44.86;;
69611;Laerm;56817;52.302;4.844;2023-04-01T01:02:18;37.66;35.00;43.66;;
69611;Laerm;56817;52.302;4.844;2023-04-01T01:02:28;37.91;34.82;50.87;;
69611;Laerm;56817;52.302;4.844;2023-04-01T01:02:41;40.27;35.06;47.15;;
69611;Laerm;56817;52.302;4.844;2023-04-01T01:02:51;37.07;34.52;45.23;;
69611;Laerm;56817;52.302;4.844;2023-04-01T01:03:02;36.22;33.86;48.16;;
69611;Laerm;56817;52.302;4.844;2023-04-01T01:03:12;35.74;33.99;41.80;;
69611;Laerm;56817;52.302;4.844;2023-04-01T01:03:22;36.28;34.00;43.33;;
69611;Laerm;56817;52.302;4.844;2023-04-01T01:03:33;36.27;33.80;46.18;;
69611;Laerm;56817;52.302;4.844;2023-04-01T01:03:44;36.86;34.05;45.51;;